sensor_id;sensor_type;location;lat;lon;timestamp;P1;durP1;ratioP1;P2;durP2;ratioP2
74465;SDS011;62916;50.044;15.938;2023-04-24T00:00:19;2.40;;;2.20;;
74465;SDS011;62916;50.044;15.938;2023-04-24T00:02:50;2.10;;;1.90;;
74465;SDS011;62916;50.044;15.938;2023-04-24T00:05:25;2.10;;;2.00;;
74465;SDS011;62916;50.044;15.938;2023-04-24T00:07:56;2.30;;;2.10;;
74465;SDS011;62916;50.044;15.938;2023-04-24T00:10:27;2.40;;;2.20;;
74465;SDS011;62916;50.044;15.938;2023-04-24T00:12:58;2.20;;;2.00;;
74465;SDS011;62916;50.044;15.938;2023-04-24T00:15:29;2.60;;;2.40;;
74465;SDS011;62916;50.044;15.938;2023-04-24T00:18:00;2.60;;;2.40;;
74465;SDS011;62916;50.044;15.938;2023-04-24T00:20:31;2.40;;;1.90;;
74465;SDS011;62916;50.044;15.938;2023-04-24T00:23:03;2.20;;;2.00;;
74465;SDS011;62916;50.044;15.938;2023-04-24T00:25:34;2.40;;;2.20;;
74465;SDS011;62916;50.044;15.938;2023-04-24T00:28:04;2.10;;;1.80;;
74465;SDS011;62916;50.044;15.938;2023-04-24T00:30:35;1.90;;;1.80;;
74465;SDS011;62916;50.044;15.938;2023-04-24T00:33:06;1.90;;;1.70;;
74465;SDS011;62916;50.044;15.938;2023-04-24T00:35:37;2.20;;;2.00;;
74465;SDS011;62916;50.044;15.938;2023-04-24T00:38:08;1.80;;;1.70;;
74465;SDS011;62916;50.044;15.938;2023-04-24T00:40:39;2.00;;;1.90;;
74465;SDS011;62916;50.044;15.938;2023-04-24T00:43:10;2.20;;;2.00;;
74465;SDS011;62916;50.044;15.938;2023-04-24T00:45:41;2.20;;;2.00;;
74465;SDS011;62916;50.044;15.938;2023-04-24T00:48:12;2.40;;;1.90;;
74465;SDS011;62916;50.044;15.938;2023-04-24T00:50:44;2.00;;;1.80;;
74465;SDS011;62916;50.044;15.938;2023-04-24T00:53:15;1.90;;;1.60;;
74465;SDS011;62916;50.044;15.938;2023-04-24T00:55:46;2.20;;;2.00;;
74465;SDS011;62916;50.044;15.938;2023-04-24T00:58:17;2.30;;;2.10;;
74465;SDS011;62916;50.044;15.938;2023-04-24T01:00:48;1.80;;;1.70;;
74465;SDS011;62916;50.044;15.938;2023-04-24T01:03:21;2.40;;;2.20;;
74465;SDS011;62916;50.044;15.938;2023-04-24T01:05:54;2.90;;;2.00;;
74465;SDS011;62916;50.044;15.938;2023-04-24T01:08:25;2.40;;;2.20;;
74465;SDS011;62916;50.044;15.938;2023-04-24T01:10:57;2.60;;;2.40;;
74465;SDS011;62916;50.044;15.938;2023-04-24T01:13:29;2.10;;;1.90;;
74465;SDS011;62916;50.044;15.938;2023-04-24T01:16:00;2.20;;;1.90;;
74465;SDS011;62916;50.044;15.938;2023-04-24T01:18:31;2.50;;;2.10;;
74465;SDS011;62916;50.044;15.938;2023-04-24T01:21:03;2.60;;;2.40;;
74465;SDS011;62916;50.044;15.938;2023-04-24T01:23:35;2.20;;;1.90;;
74465;SDS011;62916;50.044;15.938;2023-04-24T01:26:06;2.00;;;1.90;;
74465;SDS011;62916;50.044;15.938;2023-04-24T01:28:37;2.20;;;1.90;;
74465;SDS011;62916;50.044;15.938;2023-04-24T01:31:08;2.10;;;1.90;;
74465;SDS011;62916;50.044;15.938;2023-04-24T01:33:38;2.20;;;2.00;;
74465;SDS011;62916;50.044;15.938;2023-04-24T01:36:09;2.20;;;1.90;;
74465;SDS011;62916;50.044;15.938;2023-04-24T01:38:41;2.10;;;1.70;;
74465;SDS011;62916;50.044;15.938;2023-04-24T01:41:12;2.60;;;2.40;;
74465;SDS011;62916;50.044;15.938;2023-04-24T01:43:44;2.10;;;1.50;;
74465;SDS011;62916;50.044;15.938;2023-04-24T01:46:15;1.80;;;1.70;;
74465;SDS011;62916;50.044;15.938;2023-04-24T01:48:46;2.10;;;1.80;;
74465;SDS011;62916;50.044;15.938;2023-04-24T01:51:17;2.20;;;1.90;;
74465;SDS011;62916;50.044;15.938;2023-04-24T01:53:47;1.60;;;1.50;;
74465;SDS011;62916;50.044;15.938;2023-04-24T01:56:18;2.40;;;2.30;;
74465;SDS011;62916;50.044;15.938;2023-04-24T01:58:50;1.70;;;1.40;;
74465;SDS011;62916;50.044;15.938;2023-04-24T02:01:24;2.30;;;1.90;;
74465;SDS011;62916;50.044;15.938;2023-04-24T02:03:57;2.00;;;1.80;;
74465;SDS011;62916;50.044;15.938;2023-04-24T02:06:28;3.00;;;1.90;;
74465;SDS011;62916;50.044;15.938;2023-04-24T02:09:00;1.80;;;1.70;;
74465;SDS011;62916;50.044;15.938;2023-04-24T02:11:31;2.00;;;1.80;;
74465;SDS011;62916;50.044;15.938;2023-04-24T02:14:02;1.80;;;1.60;;
74465;SDS011;62916;50.044;15.938;2023-04-24T02:16:33;2.50;;;2.30;;
74465;SDS011;62916;50.044;15.938;2023-04-24T02:19:04;2.50;;;2.30;;
74465;SDS011;62916;50.044;15.938;2023-04-24T02:21:35;2.60;;;2.40;;
74465;SDS011;62916;50.044;15.938;2023-04-24T02:24:06;2.50;;;1.80;;
74465;SDS011;62916;50.044;15.938;2023-04-24T02:26:37;1.80;;;1.60;;
74465;SDS011;62916;50.044;15.938;2023-04-24T02:29:07;2.00;;;1.70;;
74465;SDS011;62916;50.044;15.938;2023-04-24T02:31:38;1.70;;;1.60;;
74465;SDS011;62916;50.044;15.938;2023-04-24T02:34:09;2.50;;;1.70;;
74465;SDS011;62916;50.044;15.938;2023-04-24T02:36:40;2.10;;;1.90;;
74465;SDS011;62916;50.044;15.938;2023-04-24T02:39:11;2.10;;;1.90;;
74465;SDS011;62916;50.044;15.938;2023-04-24T02:41:44;2.20;;;1.90;;
74465;SDS011;62916;50.044;15.938;2023-04-24T02:44:15;2.50;;;1.70;;
74465;SDS011;62916;50.044;15.938;2023-04-24T02:46:46;1.90;;;1.60;;
74465;SDS011;62916;50.044;15.938;2023-04-24T02:49:17;2.20;;;1.50;;
74465;SDS011;62916;50.044;15.938;2023-04-24T02:51:48;2.40;;;1.80;;
74465;SDS011;62916;50.044;15.938;2023-04-24T02:54:19;1.40;;;1.30;;
74465;SDS011;62916;50.044;15.938;2023-04-24T02:56:50;1.70;;;1.60;;
74465;SDS011;62916;50.044;15.938;2023-04-24T02:59:20;1.90;;;1.40;;
74465;SDS011;62916;50.044;15.938;2023-04-24T03:01:51;2.00;;;1.80;;
74465;SDS011;62916;50.044;15.938;2023-04-24T03:04:22;1.70;;;1.60;;
74465;SDS011;62916;50.044;15.938;2023-04-24T03:06:54;1.90;;;1.70;;
74465;SDS011;62916;50.044;15.938;2023-04-24T03:09:25;1.70;;;1.60;;
74465;SDS011;62916;50.044;15.938;2023-04-24T03:11:56;1.90;;;1.80;;
74465;SDS011;62916;50.044;15.938;2023-04-24T03:14:27;1.90;;;1.70;;
74465;SDS011;62916;50.044;15.938;2023-04-24T03:16:59;1.90;;;1.70;;
74465;SDS011;62916;50.044;15.938;2023-04-24T03:19:29;2.20;;;2.00;;
74465;SDS011;62916;50.044;15.938;2023-04-24T03:22:00;1.60;;;1.50;;
74465;SDS011;62916;50.044;15.938;2023-04-24T03:24:32;1.70;;;1.60;;
74465;SDS011;62916;50.044;15.938;2023-04-24T03:27:03;1.80;;;1.70;;
74465;SDS011;62916;50.044;15.938;2023-04-24T03:29:34;2.10;;;1.90;;
74465;SDS011;62916;50.044;15.938;2023-04-24T03:32:05;2.20;;;1.70;;
74465;SDS011;62916;50.044;15.938;2023-04-24T03:34:36;2.00;;;1.80;;
74465;SDS011;62916;50.044;15.938;2023-04-24T03:37:06;2.20;;;2.00;;
74465;SDS011;62916;50.044;15.938;2023-04-24T03:39:38;2.80;;;2.10;;
74465;SDS011;62916;50.044;15.938;2023-04-24T03:42:09;2.30;;;2.10;;
74465;SDS011;62916;50.044;15.938;2023-04-24T03:44:40;1.80;;;1.70;;
74465;SDS011;62916;50.044;15.938;2023-04-24T03:47:11;2.40;;;1.60;;
74465;SDS011;62916;50.044;15.938;2023-04-24T03:49:42;5.10;;;2.20;;
74465;SDS011;62916;50.044;15.938;2023-04-24T03:52:12;2.40;;;2.20;;
74465;SDS011;62916;50.044;15.938;2023-04-24T03:54:43;2.90;;;2.50;;
74465;SDS011;62916;50.044;15.938;2023-04-24T03:57:14;5.10;;;2.40;;
74465;SDS011;62916;50.044;15.938;2023-04-24T03:59:45;3.60;;;2.70;;
74465;SDS011;62916;50.044;15.938;2023-04-24T04:02:15;3.20;;;2.70;;
74465;SDS011;62916;50.044;15.938;2023-04-24T04:04:46;3.60;;;2.60;;
74465;SDS011;62916;50.044;15.938;2023-04-24T04:07:17;5.20;;;3.30;;
74465;SDS011;62916;50.044;15.938;2023-04-24T04:09:48;6.20;;;3.60;;
74465;SDS011;62916;50.044;15.938;2023-04-24T04:12:19;4.10;;;3.20;;
74465;SDS011;62916;50.044;15.938;2023-04-24T04:14:50;5.00;;;3.20;;
74465;SDS011;62916;50.044;15.938;2023-04-24T04:17:20;7.90;;;4.30;;
74465;SDS011;62916;50.044;15.938;2023-04-24T04:19:51;9.30;;;3.60;;
74465;SDS011;62916;50.044;15.938;2023-04-24T04:22:22;10.70;;;3.80;;
74465;SDS011;62916;50.044;15.938;2023-04-24T04:24:53;8.70;;;3.70;;
74465;SDS011;62916;50.044;15.938;2023-04-24T04:27:24;11.00;;;3.30;;
74465;SDS011;62916;50.044;15.938;2023-04-24T04:29:56;10.70;;;4.20;;
74465;SDS011;62916;50.044;15.938;2023-04-24T04:32:27;8.20;;;3.60;;
74465;SDS011;62916;50.044;15.938;2023-04-24T04:34:58;12.70;;;3.80;;
74465;SDS011;62916;50.044;15.938;2023-04-24T04:37:30;12.00;;;3.60;;
74465;SDS011;62916;50.044;15.938;2023-04-24T04:40:02;11.40;;;3.50;;
74465;SDS011;62916;50.044;15.938;2023-04-24T04:42:35;10.90;;;3.30;;
74465;SDS011;62916;50.044;15.938;2023-04-24T04:45:09;9.50;;;3.50;;
74465;SDS011;62916;50.044;15.938;2023-04-24T04:47:40;7.40;;;3.40;;
74465;SDS011;62916;50.044;15.938;2023-04-24T04:50:11;8.70;;;3.70;;
74465;SDS011;62916;50.044;15.938;2023-04-24T04:52:42;11.30;;;3.80;;
74465;SDS011;62916;50.044;15.938;2023-04-24T04:55:13;8.20;;;3.60;;
74465;SDS011;62916;50.044;15.938;2023-04-24T04:57:46;8.10;;;3.30;;
74465;SDS011;62916;50.044;15.938;2023-04-24T05:00:17;5.80;;;3.30;;
74465;SDS011;62916;50.044;15.938;2023-04-24T05:02:48;8.10;;;3.00;;
74465;SDS011;62916;50.044;15.938;2023-04-24T05:05:20;5.10;;;2.80;;
74465;SDS011;62916;50.044;15.938;2023-04-24T05:07:51;8.60;;;3.20;;
74465;SDS011;62916;50.044;15.938;2023-04-24T05:10:22;5.70;;;3.30;;
74465;SDS011;62916;50.044;15.938;2023-04-24T05:12:52;5.10;;;3.00;;
74465;SDS011;62916;50.044;15.938;2023-04-24T05:15:23;7.00;;;2.80;;
74465;SDS011;62916;50.044;15.938;2023-04-24T05:17:54;6.60;;;3.20;;
74465;SDS011;62916;50.044;15.938;2023-04-24T05:20:25;6.20;;;2.70;;
74465;SDS011;62916;50.044;15.938;2023-04-24T05:22:56;6.80;;;2.80;;
74465;SDS011;62916;50.044;15.938;2023-04-24T05:25:27;6.90;;;3.00;;
74465;SDS011;62916;50.044;15.938;2023-04-24T05:28:00;4.20;;;2.70;;
74465;SDS011;62916;50.044;15.938;2023-04-24T05:30:31;8.00;;;3.20;;
74465;SDS011;62916;50.044;15.938;2023-04-24T05:33:01;6.90;;;3.00;;
74465;SDS011;62916;50.044;15.938;2023-04-24T05:35:33;3.90;;;2.90;;
74465;SDS011;62916;50.044;15.938;2023-04-24T05:38:03;4.30;;;2.60;;
74465;SDS011;62916;50.044;15.938;2023-04-24T05:40:34;7.10;;;3.00;;
74465;SDS011;62916;50.044;15.938;2023-04-24T05:43:05;4.40;;;2.90;;
74465;SDS011;62916;50.044;15.938;2023-04-24T05:45:36;6.00;;;3.10;;
74465;SDS011;62916;50.044;15.938;2023-04-24T05:48:07;6.90;;;3.00;;
74465;SDS011;62916;50.044;15.938;2023-04-24T05:50:38;5.30;;;3.10;;
74465;SDS011;62916;50.044;15.938;2023-04-24T05:53:08;5.20;;;2.90;;
74465;SDS011;62916;50.044;15.938;2023-04-24T05:55:39;5.10;;;2.90;;
74465;SDS011;62916;50.044;15.938;2023-04-24T05:58:10;4.70;;;2.30;;
74465;SDS011;62916;50.044;15.938;2023-04-24T06:00:40;5.40;;;3.20;;
74465;SDS011;62916;50.044;15.938;2023-04-24T06:03:14;5.60;;;3.00;;
74465;SDS011;62916;50.044;15.938;2023-04-24T06:05:45;4.20;;;2.60;;
74465;SDS011;62916;50.044;15.938;2023-04-24T06:08:16;5.70;;;3.50;;
74465;SDS011;62916;50.044;15.938;2023-04-24T06:10:47;5.00;;;3.20;;
74465;SDS011;62916;50.044;15.938;2023-04-24T06:13:18;4.60;;;2.80;;
74465;SDS011;62916;50.044;15.938;2023-04-24T06:15:48;5.30;;;2.50;;
74465;SDS011;62916;50.044;15.938;2023-04-24T06:18:20;3.30;;;2.80;;
74465;SDS011;62916;50.044;15.938;2023-04-24T06:20:51;5.30;;;2.80;;
74465;SDS011;62916;50.044;15.938;2023-04-24T06:23:23;4.50;;;2.50;;
74465;SDS011;62916;50.044;15.938;2023-04-24T06:25:54;3.60;;;2.70;;
74465;SDS011;62916;50.044;15.938;2023-04-24T06:28:25;3.00;;;2.40;;
74465;SDS011;62916;50.044;15.938;2023-04-24T06:30:56;2.80;;;2.40;;
74465;SDS011;62916;50.044;15.938;2023-04-24T06:33:26;4.70;;;2.60;;
74465;SDS011;62916;50.044;15.938;2023-04-24T06:35:57;4.70;;;2.70;;
74465;SDS011;62916;50.044;15.938;2023-04-24T06:38:28;5.30;;;3.00;;
74465;SDS011;62916;50.044;15.938;2023-04-24T06:40:59;3.70;;;2.40;;
74465;SDS011;62916;50.044;15.938;2023-04-24T06:43:31;4.70;;;3.30;;
74465;SDS011;62916;50.044;15.938;2023-04-24T06:46:02;3.50;;;2.30;;
74465;SDS011;62916;50.044;15.938;2023-04-24T06:48:33;3.10;;;2.50;;
74465;SDS011;62916;50.044;15.938;2023-04-24T06:51:04;3.30;;;2.60;;
74465;SDS011;62916;50.044;15.938;2023-04-24T06:53:35;4.00;;;2.40;;
74465;SDS011;62916;50.044;15.938;2023-04-24T06:56:06;5.10;;;2.20;;
74465;SDS011;62916;50.044;15.938;2023-04-24T06:58:37;5.70;;;2.80;;
74465;SDS011;62916;50.044;15.938;2023-04-24T07:01:08;3.90;;;2.30;;
74465;SDS011;62916;50.044;15.938;2023-04-24T07:03:39;3.60;;;2.50;;
74465;SDS011;62916;50.044;15.938;2023-04-24T07:06:10;3.70;;;2.10;;
74465;SDS011;62916;50.044;15.938;2023-04-24T07:08:41;3.80;;;2.40;;
74465;SDS011;62916;50.044;15.938;2023-04-24T07:11:12;2.70;;;2.40;;
74465;SDS011;62916;50.044;15.938;2023-04-24T07:13:43;4.10;;;3.20;;
74465;SDS011;62916;50.044;15.938;2023-04-24T07:16:14;3.50;;;2.60;;
74465;SDS011;62916;50.044;15.938;2023-04-24T07:18:45;2.80;;;2.30;;
74465;SDS011;62916;50.044;15.938;2023-04-24T07:21:16;3.90;;;2.70;;
74465;SDS011;62916;50.044;15.938;2023-04-24T07:23:47;3.50;;;2.50;;
74465;SDS011;62916;50.044;15.938;2023-04-24T07:26:18;3.60;;;2.90;;
74465;SDS011;62916;50.044;15.938;2023-04-24T07:28:49;3.30;;;2.00;;
74465;SDS011;62916;50.044;15.938;2023-04-24T07:31:20;4.90;;;2.30;;
74465;SDS011;62916;50.044;15.938;2023-04-24T07:33:51;2.60;;;2.40;;
74465;SDS011;62916;50.044;15.938;2023-04-24T07:36:22;2.70;;;2.30;;
74465;SDS011;62916;50.044;15.938;2023-04-24T07:38:53;3.70;;;2.80;;
74465;SDS011;62916;50.044;15.938;2023-04-24T07:41:25;2.80;;;2.20;;
74465;SDS011;62916;50.044;15.938;2023-04-24T07:43:56;2.80;;;2.30;;
74465;SDS011;62916;50.044;15.938;2023-04-24T07:46:27;2.80;;;2.00;;
74465;SDS011;62916;50.044;15.938;2023-04-24T07:49:00;3.00;;;2.40;;
74465;SDS011;62916;50.044;15.938;2023-04-24T07:51:40;3.90;;;2.20;;
74465;SDS011;62916;50.044;15.938;2023-04-24T07:54:11;4.60;;;2.80;;
74465;SDS011;62916;50.044;15.938;2023-04-24T07:56:43;3.60;;;2.20;;
74465;SDS011;62916;50.044;15.938;2023-04-24T07:59:13;3.30;;;2.10;;
74465;SDS011;62916;50.044;15.938;2023-04-24T08:01:44;3.60;;;2.20;;
74465;SDS011;62916;50.044;15.938;2023-04-24T08:04:15;3.80;;;2.40;;
74465;SDS011;62916;50.044;15.938;2023-04-24T08:06:48;2.50;;;2.30;;
74465;SDS011;62916;50.044;15.938;2023-04-24T08:09:19;4.80;;;2.40;;
74465;SDS011;62916;50.044;15.938;2023-04-24T08:11:50;2.90;;;2.50;;
74465;SDS011;62916;50.044;15.938;2023-04-24T08:14:21;3.50;;;2.20;;
74465;SDS011;62916;50.044;15.938;2023-04-24T08:16:53;3.10;;;2.10;;
74465;SDS011;62916;50.044;15.938;2023-04-24T08:19:25;2.60;;;2.10;;
74465;SDS011;62916;50.044;15.938;2023-04-24T08:21:56;3.00;;;2.20;;
74465;SDS011;62916;50.044;15.938;2023-04-24T08:24:26;3.50;;;2.30;;
74465;SDS011;62916;50.044;15.938;2023-04-24T08:26:58;2.30;;;2.10;;
74465;SDS011;62916;50.044;15.938;2023-04-24T08:29:29;2.50;;;1.90;;
74465;SDS011;62916;50.044;15.938;2023-04-24T08:32:00;2.90;;;2.40;;
74465;SDS011;62916;50.044;15.938;2023-04-24T08:34:31;2.80;;;2.10;;
74465;SDS011;62916;50.044;15.938;2023-04-24T08:37:02;2.90;;;2.10;;
74465;SDS011;62916;50.044;15.938;2023-04-24T08:39:33;2.60;;;2.20;;
74465;SDS011;62916;50.044;15.938;2023-04-24T08:42:05;3.00;;;2.20;;
74465;SDS011;62916;50.044;15.938;2023-04-24T08:44:37;3.50;;;2.20;;
74465;SDS011;62916;50.044;15.938;2023-04-24T08:47:08;2.70;;;2.30;;
74465;SDS011;62916;50.044;15.938;2023-04-24T08:49:42;2.90;;;2.30;;
74465;SDS011;62916;50.044;15.938;2023-04-24T08:52:14;3.00;;;2.30;;
74465;SDS011;62916;50.044;15.938;2023-04-24T08:54:47;3.30;;;2.50;;
74465;SDS011;62916;50.044;15.938;2023-04-24T08:57:19;3.10;;;2.80;;
74465;SDS011;62916;50.044;15.938;2023-04-24T08:59:50;2.90;;;2.40;;
74465;SDS011;62916;50.044;15.938;2023-04-24T09:02:21;3.10;;;2.50;;
74465;SDS011;62916;50.044;15.938;2023-04-24T09:04:54;2.90;;;2.20;;
74465;SDS011;62916;50.044;15.938;2023-04-24T09:07:26;2.70;;;2.50;;
74465;SDS011;62916;50.044;15.938;2023-04-24T09:09:59;2.70;;;2.30;;
74465;SDS011;62916;50.044;15.938;2023-04-24T09:12:32;2.30;;;2.10;;
74465;SDS011;62916;50.044;15.938;2023-04-24T09:15:03;3.80;;;3.10;;
74465;SDS011;62916;50.044;15.938;2023-04-24T09:17:36;3.00;;;2.40;;
74465;SDS011;62916;50.044;15.938;2023-04-24T09:20:08;3.80;;;2.50;;
74465;SDS011;62916;50.044;15.938;2023-04-24T09:22:39;2.80;;;2.40;;
74465;SDS011;62916;50.044;15.938;2023-04-24T09:25:10;3.10;;;2.60;;
74465;SDS011;62916;50.044;15.938;2023-04-24T09:27:44;4.00;;;3.10;;
74465;SDS011;62916;50.044;15.938;2023-04-24T09:30:16;2.80;;;2.50;;
74465;SDS011;62916;50.044;15.938;2023-04-24T09:32:52;3.40;;;2.80;;
74465;SDS011;62916;50.044;15.938;2023-04-24T09:35:42;3.20;;;2.60;;
74465;SDS011;62916;50.044;15.938;2023-04-24T09:38:17;3.30;;;2.60;;
74465;SDS011;62916;50.044;15.938;2023-04-24T09:40:49;3.00;;;2.70;;
74465;SDS011;62916;50.044;15.938;2023-04-24T09:43:20;3.10;;;2.60;;
74465;SDS011;62916;50.044;15.938;2023-04-24T09:45:51;3.70;;;2.90;;
74465;SDS011;62916;50.044;15.938;2023-04-24T09:48:33;3.40;;;3.10;;
74465;SDS011;62916;50.044;15.938;2023-04-24T09:51:05;3.20;;;2.40;;
74465;SDS011;62916;50.044;15.938;2023-04-24T09:53:38;2.80;;;2.40;;
74465;SDS011;62916;50.044;15.938;2023-04-24T09:56:13;2.80;;;2.50;;
74465;SDS011;62916;50.044;15.938;2023-04-24T09:58:44;2.20;;;2.00;;
74465;SDS011;62916;50.044;15.938;2023-04-24T10:01:16;2.90;;;2.60;;
74465;SDS011;62916;50.044;15.938;2023-04-24T10:04:00;3.00;;;2.60;;
74465;SDS011;62916;50.044;15.938;2023-04-24T10:06:33;2.40;;;2.10;;
74465;SDS011;62916;50.044;15.938;2023-04-24T10:09:05;2.90;;;2.60;;
74465;SDS011;62916;50.044;15.938;2023-04-24T10:11:38;2.90;;;2.70;;
74465;SDS011;62916;50.044;15.938;2023-04-24T10:14:13;3.70;;;2.50;;
74465;SDS011;62916;50.044;15.938;2023-04-24T10:16:46;2.30;;;2.10;;
74465;SDS011;62916;50.044;15.938;2023-04-24T10:19:17;2.60;;;2.40;;
74465;SDS011;62916;50.044;15.938;2023-04-24T10:21:48;3.20;;;2.40;;
74465;SDS011;62916;50.044;15.938;2023-04-24T10:24:20;3.20;;;2.90;;
74465;SDS011;62916;50.044;15.938;2023-04-24T10:26:50;3.00;;;2.50;;
74465;SDS011;62916;50.044;15.938;2023-04-24T10:29:24;2.40;;;2.10;;
74465;SDS011;62916;50.044;15.938;2023-04-24T10:31:56;2.80;;;2.50;;
74465;SDS011;62916;50.044;15.938;2023-04-24T10:34:27;3.10;;;2.60;;
74465;SDS011;62916;50.044;15.938;2023-04-24T10:36:58;4.40;;;2.60;;
74465;SDS011;62916;50.044;15.938;2023-04-24T10:39:29;2.60;;;2.40;;
74465;SDS011;62916;50.044;15.938;2023-04-24T10:42:01;2.80;;;2.30;;
74465;SDS011;62916;50.044;15.938;2023-04-24T10:44:42;3.30;;;2.70;;
74465;SDS011;62916;50.044;15.938;2023-04-24T10:47:16;2.90;;;2.60;;
74465;SDS011;62916;50.044;15.938;2023-04-24T10:49:47;2.80;;;2.50;;
74465;SDS011;62916;50.044;15.938;2023-04-24T10:52:21;2.50;;;2.20;;
74465;SDS011;62916;50.044;15.938;2023-04-24T10:55:13;2.60;;;2.20;;
74465;SDS011;62916;50.044;15.938;2023-04-24T11:00:32;3.40;;;3.20;;
74465;SDS011;62916;50.044;15.938;2023-04-24T11:03:05;3.30;;;2.50;;
74465;SDS011;62916;50.044;15.938;2023-04-24T11:08:32;2.70;;;2.10;;
74465;SDS011;62916;50.044;15.938;2023-04-24T11:11:11;2.60;;;2.40;;
74465;SDS011;62916;50.044;15.938;2023-04-24T11:16:35;2.70;;;2.30;;
74465;SDS011;62916;50.044;15.938;2023-04-24T11:21:42;2.60;;;2.40;;
74465;SDS011;62916;50.044;15.938;2023-04-24T11:24:24;2.70;;;2.50;;
74465;SDS011;62916;50.044;15.938;2023-04-24T11:26:57;2.30;;;2.10;;
74465;SDS011;62916;50.044;15.938;2023-04-24T11:29:44;2.10;;;1.90;;
74465;SDS011;62916;50.044;15.938;2023-04-24T11:32:25;2.00;;;1.80;;
74465;SDS011;62916;50.044;15.938;2023-04-24T11:34:57;2.40;;;2.00;;
74465;SDS011;62916;50.044;15.938;2023-04-24T11:37:29;2.10;;;1.90;;
74465;SDS011;62916;50.044;15.938;2023-04-24T11:40:06;2.80;;;2.20;;
74465;SDS011;62916;50.044;15.938;2023-04-24T11:42:40;3.40;;;2.20;;
74465;SDS011;62916;50.044;15.938;2023-04-24T11:45:12;2.50;;;2.30;;
74465;SDS011;62916;50.044;15.938;2023-04-24T11:47:45;2.10;;;1.90;;
74465;SDS011;62916;50.044;15.938;2023-04-24T11:50:16;2.60;;;2.30;;
74465;SDS011;62916;50.044;15.938;2023-04-24T11:52:48;2.20;;;1.90;;
74465;SDS011;62916;50.044;15.938;2023-04-24T11:55:27;2.80;;;2.20;;
74465;SDS011;62916;50.044;15.938;2023-04-24T11:57:58;2.40;;;2.20;;
74465;SDS011;62916;50.044;15.938;2023-04-24T12:00:31;2.30;;;2.10;;
74465;SDS011;62916;50.044;15.938;2023-04-24T12:03:06;2.20;;;1.90;;
74465;SDS011;62916;50.044;15.938;2023-04-24T12:05:39;2.50;;;2.20;;
74465;SDS011;62916;50.044;15.938;2023-04-24T12:08:12;2.30;;;2.10;;
74465;SDS011;62916;50.044;15.938;2023-04-24T12:10:57;2.50;;;2.10;;
74465;SDS011;62916;50.044;15.938;2023-04-24T12:13:29;2.30;;;1.60;;
74465;SDS011;62916;50.044;15.938;2023-04-24T12:16:01;1.90;;;1.60;;
74465;SDS011;62916;50.044;15.938;2023-04-24T12:18:33;2.90;;;2.00;;
74465;SDS011;62916;50.044;15.938;2023-04-24T12:21:16;3.60;;;2.30;;
74465;SDS011;62916;50.044;15.938;2023-04-24T12:23:53;2.20;;;2.00;;
74465;SDS011;62916;50.044;15.938;2023-04-24T12:26:25;1.90;;;1.70;;
74465;SDS011;62916;50.044;15.938;2023-04-24T12:29:00;2.20;;;2.00;;
74465;SDS011;62916;50.044;15.938;2023-04-24T12:31:32;2.00;;;1.70;;
74465;SDS011;62916;50.044;15.938;2023-04-24T12:34:03;2.00;;;1.90;;
74465;SDS011;62916;50.044;15.938;2023-04-24T12:36:46;2.20;;;2.00;;
74465;SDS011;62916;50.044;15.938;2023-04-24T12:39:17;1.80;;;1.70;;
74465;SDS011;62916;50.044;15.938;2023-04-24T12:41:53;2.00;;;1.90;;
74465;SDS011;62916;50.044;15.938;2023-04-24T12:44:32;2.30;;;1.90;;
74465;SDS011;62916;50.044;15.938;2023-04-24T12:47:04;1.90;;;1.60;;
74465;SDS011;62916;50.044;15.938;2023-04-24T12:49:37;2.00;;;1.60;;
74465;SDS011;62916;50.044;15.938;2023-04-24T12:52:08;2.50;;;1.80;;
74465;SDS011;62916;50.044;15.938;2023-04-24T12:54:39;2.00;;;1.80;;
74465;SDS011;62916;50.044;15.938;2023-04-24T12:57:10;1.90;;;1.80;;
74465;SDS011;62916;50.044;15.938;2023-04-24T12:59:41;2.00;;;1.90;;
74465;SDS011;62916;50.044;15.938;2023-04-24T13:02:12;2.40;;;1.90;;
74465;SDS011;62916;50.044;15.938;2023-04-24T13:04:45;2.40;;;2.20;;
74465;SDS011;62916;50.044;15.938;2023-04-24T13:07:16;2.20;;;1.90;;
74465;SDS011;62916;50.044;15.938;2023-04-24T13:09:48;2.50;;;2.40;;
74465;SDS011;62916;50.044;15.938;2023-04-24T13:12:19;2.00;;;1.80;;
74465;SDS011;62916;50.044;15.938;2023-04-24T13:14:51;2.20;;;2.00;;
74465;SDS011;62916;50.044;15.938;2023-04-24T13:17:23;2.20;;;2.00;;
74465;SDS011;62916;50.044;15.938;2023-04-24T13:19:54;1.60;;;1.50;;
74465;SDS011;62916;50.044;15.938;2023-04-24T13:22:25;2.10;;;1.80;;
74465;SDS011;62916;50.044;15.938;2023-04-24T13:24:56;3.60;;;1.90;;
74465;SDS011;62916;50.044;15.938;2023-04-24T13:27:29;2.30;;;2.10;;
74465;SDS011;62916;50.044;15.938;2023-04-24T13:30:00;1.70;;;1.60;;
74465;SDS011;62916;50.044;15.938;2023-04-24T13:32:32;1.90;;;1.70;;
74465;SDS011;62916;50.044;15.938;2023-04-24T13:35:05;2.00;;;1.80;;
74465;SDS011;62916;50.044;15.938;2023-04-24T13:37:37;2.10;;;1.90;;
74465;SDS011;62916;50.044;15.938;2023-04-24T13:40:09;2.70;;;2.50;;
74465;SDS011;62916;50.044;15.938;2023-04-24T13:42:40;1.90;;;1.80;;
74465;SDS011;62916;50.044;15.938;2023-04-24T13:45:12;1.80;;;1.70;;
74465;SDS011;62916;50.044;15.938;2023-04-24T13:47:52;1.80;;;1.70;;
74465;SDS011;62916;50.044;15.938;2023-04-24T13:50:24;2.10;;;1.80;;
74465;SDS011;62916;50.044;15.938;2023-04-24T13:52:55;1.60;;;1.50;;
74465;SDS011;62916;50.044;15.938;2023-04-24T13:55:29;1.90;;;1.80;;
74465;SDS011;62916;50.044;15.938;2023-04-24T13:58:00;1.80;;;1.70;;
74465;SDS011;62916;50.044;15.938;2023-04-24T14:00:31;1.80;;;1.70;;
74465;SDS011;62916;50.044;15.938;2023-04-24T14:03:02;2.00;;;1.80;;
74465;SDS011;62916;50.044;15.938;2023-04-24T14:05:33;2.00;;;1.70;;
74465;SDS011;62916;50.044;15.938;2023-04-24T14:08:05;2.20;;;1.80;;
74465;SDS011;62916;50.044;15.938;2023-04-24T14:10:37;1.60;;;1.50;;
74465;SDS011;62916;50.044;15.938;2023-04-24T14:13:08;1.80;;;1.70;;
74465;SDS011;62916;50.044;15.938;2023-04-24T14:15:40;1.70;;;1.60;;
74465;SDS011;62916;50.044;15.938;2023-04-24T14:18:11;2.10;;;2.00;;
74465;SDS011;62916;50.044;15.938;2023-04-24T14:20:42;1.50;;;1.40;;
74465;SDS011;62916;50.044;15.938;2023-04-24T14:23:14;2.00;;;1.60;;
74465;SDS011;62916;50.044;15.938;2023-04-24T14:25:45;1.50;;;1.30;;
74465;SDS011;62916;50.044;15.938;2023-04-24T14:28:19;1.70;;;1.60;;
74465;SDS011;62916;50.044;15.938;2023-04-24T14:30:51;1.90;;;1.70;;
74465;SDS011;62916;50.044;15.938;2023-04-24T14:33:22;1.60;;;1.50;;
74465;SDS011;62916;50.044;15.938;2023-04-24T14:35:53;1.60;;;1.50;;
74465;SDS011;62916;50.044;15.938;2023-04-24T14:38:24;1.80;;;1.70;;
74465;SDS011;62916;50.044;15.938;2023-04-24T14:40:55;2.50;;;2.30;;
74465;SDS011;62916;50.044;15.938;2023-04-24T14:43:34;1.60;;;1.50;;
74465;SDS011;62916;50.044;15.938;2023-04-24T14:46:05;1.70;;;1.60;;
74465;SDS011;62916;50.044;15.938;2023-04-24T14:48:37;1.80;;;1.60;;
74465;SDS011;62916;50.044;15.938;2023-04-24T14:51:08;6.00;;;2.10;;
74465;SDS011;62916;50.044;15.938;2023-04-24T14:53:39;14.10;;;3.20;;
74465;SDS011;62916;50.044;15.938;2023-04-24T14:56:10;15.80;;;3.80;;
74465;SDS011;62916;50.044;15.938;2023-04-24T14:58:44;5.20;;;2.80;;
74465;SDS011;62916;50.044;15.938;2023-04-24T15:01:15;7.20;;;2.40;;
74465;SDS011;62916;50.044;15.938;2023-04-24T15:03:47;4.10;;;2.20;;
74465;SDS011;62916;50.044;15.938;2023-04-24T15:06:19;6.00;;;2.00;;
74465;SDS011;62916;50.044;15.938;2023-04-24T15:08:50;4.40;;;2.00;;
74465;SDS011;62916;50.044;15.938;2023-04-24T15:11:22;3.50;;;1.40;;